createdAt,value
2019-02-24T21:29:09.790Z,84.00
2019-02-24T21:31:39.812Z,84.60
2019-02-24T21:34:09.923Z,84.60
2019-02-24T21:36:40.016Z,84.30
2019-02-24T21:39:09.951Z,84.10
2019-02-24T21:41:40.080Z,84.10
2019-02-24T21:44:10.242Z,83.90
2019-02-24T21:46:40.419Z,83.30
2019-02-24T21:49:10.453Z,82.90
2019-02-24T21:51:59.119Z,82.00
2019-02-24T21:54:29.125Z,81.30
2019-02-24T21:56:59.373Z,81.20
2019-02-24T21:59:36.808Z,81.20
2019-02-24T22:02:00.831Z,80.80
2019-02-24T22:04:30.519Z,79.50
2019-02-24T22:07:00.252Z,79.60
2019-02-24T22:09:48.878Z,79.90
2019-02-24T22:12:18.721Z,80.00
2019-02-24T22:14:49.418Z,80.40
2019-02-24T22:17:19.119Z,80.20
2019-02-24T22:19:48.966Z,80.20
2019-02-24T22:22:18.751Z,80.30
2019-02-24T22:24:48.459Z,79.50
2019-02-24T22:27:19.340Z,80.00
2019-02-24T22:29:50.601Z,79.70
2019-02-24T22:32:20.256Z,80.20
2019-02-24T22:34:51.187Z,80.70
2019-02-24T22:37:20.926Z,81.30
2019-02-24T22:39:50.633Z,81.70
2019-02-24T22:42:20.395Z,81.90
2019-02-24T22:44:50.259Z,82.30
2019-02-24T22:47:20.168Z,82.10
2019-02-24T22:49:49.923Z,81.70
2019-02-24T22:52:19.701Z,82.20
2019-02-24T22:54:49.395Z,82.40
2019-02-24T22:57:19.116Z,82.90
2019-02-24T22:59:48.923Z,82.10
2019-02-24T23:02:19.633Z,81.90
2019-02-24T23:04:49.705Z,81.90
2019-02-24T23:07:19.487Z,81.90
2019-02-24T23:09:49.203Z,81.90
2019-02-24T23:12:18.956Z,81.80
2019-02-24T23:14:48.611Z,82.00
2019-02-24T23:17:18.324Z,83.50
2019-02-24T23:19:48.075Z,84.40
2019-02-24T23:22:17.735Z,84.60
2019-02-24T23:24:47.474Z,85.00
2019-02-24T23:27:17.200Z,85.10
2019-02-24T23:29:47.026Z,85.10
2019-02-24T23:32:17.846Z,84.80
2019-02-24T23:34:47.531Z,84.70
2019-02-24T23:37:17.215Z,84.60
2019-02-24T23:39:46.919Z,84.80
2019-02-24T23:42:16.675Z,84.30
2019-02-24T23:44:46.364Z,85.30
2019-02-24T23:47:16.071Z,85.50
2019-02-24T23:49:45.823Z,85.70
2019-02-24T23:52:15.479Z,84.60
2019-02-24T23:54:45.203Z,84.40
2019-02-24T23:57:14.924Z,83.80
2019-02-24T23:59:44.520Z,84.80
